sensor_id;sensor_type;location;lat;lon;timestamp;temperature;humidity
2260;DHT22;333;48.800;9.530;2023-04-01T00:01:23;9.70;99.60
2260;DHT22;333;48.800;9.530;2023-04-01T00:03:50;9.80;99.60
2260;DHT22;333;48.800;9.530;2023-04-01T00:06:17;9.80;99.60
2260;DHT22;333;48.800;9.530;2023-04-01T00:08:45;9.70;99.60
2260;DHT22;333;48.800;9.530;2023-04-01T00:11:14;9.70;99.60
2260;DHT22;333;48.800;9.530;2023-04-01T00:13:42;9.70;99.60
2260;DHT22;333;48.800;9.530;2023-04-01T00:16:09;9.80;99.60
2260;DHT22;333;48.800;9.530;2023-04-01T00:18:38;9.80;99.60
2260;DHT22;333;48.800;9.530;2023-04-01T00:21:05;9.70;99.60
2260;DHT22;333;48.800;9.530;2023-04-01T00:23:33;9.70;99.60
2260;DHT22;333;48.800;9.530;2023-04-01T00:26:01;9.70;99.60
2260;DHT22;333;48.800;9.530;2023-04-01T00:28:29;9.80;99.60
2260;DHT22;333;48.800;9.530;2023-04-01T00:30:56;9.80;99.60
2260;DHT22;333;48.800;9.530;2023-04-01T00:33:23;9.80;99.60
2260;DHT22;333;48.800;9.530;2023-04-01T00:35:50;9.80;99.60
2260;DHT22;333;48.800;9.530;2023-04-01T00:38:17;9.80;99.60
2260;DHT22;333;48.800;9.530;2023-04-01T00:40:46;9.80;99.60
2260;DHT22;333;48.800;9.530;2023-04-01T00:43:14;9.80;99.60
2260;DHT22;333;48.800;9.530;2023-04-01T00:45:46;9.80;99.60
2260;DHT22;333;48.800;9.530;2023-04-01T00:48:16;9.80;99.60
2260;DHT22;333;48.800;9.530;2023-04-01T00:50:47;9.70;99.60
2260;DHT22;333;48.800;9.530;2023-04-01T00:53:16;9.70;99.60
2260;DHT22;333;48.800;9.530;2023-04-01T00:55:49;9.70;99.60
2260;DHT22;333;48.800;9.530;2023-04-01T00:58:19;9.60;99.60
2260;DHT22;333;48.800;9.530;2023-04-01T01:00:50;9.60;99.60
2260;DHT22;333;48.800;9.530;2023-04-01T01:03:18;9.60;99.60
2260;DHT22;333;48.800;9.530;2023-04-01T01:05:59;9.60;99.60
2260;DHT22;333;48.800;9.530;2023-04-01T01:08:39;9.60;99.60
2260;DHT22;333;48.800;9.530;2023-04-01T01:11:10;9.70;99.60
2260;DHT22;333;48.800;9.530;2023-04-01T01:13:43;9.70;99.60
2260;DHT22;333;48.800;9.530;2023-04-01T01:16:17;9.70;99.60
2260;DHT22;333;48.800;9.530;2023-04-01T01:18:50;9.70;99.60
2260;DHT22;333;48.800;9.530;2023-04-01T01:21:42;9.60;99.60
2260;DHT22;333;48.800;9.530;2023-04-01T01:24:26;9.60;99.60
2260;DHT22;333;48.800;9.530;2023-04-01T01:27:06;9.60;99.60
2260;DHT22;333;48.800;9.530;2023-04-01T01:30:06;9.50;99.60
2260;DHT22;333;48.800;9.530;2023-04-01T01:35:52;9.30;99.60
2260;DHT22;333;48.800;9.530;2023-04-01T01:38:23;9.30;99.60
2260;DHT22;333;48.800;9.530;2023-04-01T01:40:52;9.30;99.60
2260;DHT22;333;48.800;9.530;2023-04-01T01:43:22;9.30;99.60
2260;DHT22;333;48.800;9.530;2023-04-01T01:45:53;9.40;99.60
2260;DHT22;333;48.800;9.530;2023-04-01T01:48:22;9.40;99.60
2260;DHT22;333;48.800;9.530;2023-04-01T01:50:52;9.40;99.60
2260;DHT22;333;48.800;9.530;2023-04-01T01:53:19;9.40;99.60
2260;DHT22;333;48.800;9.530;2023-04-01T01:55:47;9.40;99.60
2260;DHT22;333;48.800;9.530;2023-04-01T01:58:17;9.40;99.60
2260;DHT22;333;48.800;9.530;2023-04-01T02:00:50;9.40;99.60
2260;DHT22;333;48.800;9.530;2023-04-01T02:03:19;9.30;99.60
2260;DHT22;333;48.800;9.530;2023-04-01T02:05:48;9.30;99.60
2260;DHT22;333;48.800;9.530;2023-04-01T02:08:20;9.30;99.60
2260;DHT22;333;48.800;9.530;2023-04-01T02:10:55;9.30;99.60
2260;DHT22;333;48.800;9.530;2023-04-01T02:13:27;9.30;99.60
2260;DHT22;333;48.800;9.530;2023-04-01T02:15:59;9.20;99.60
2260;DHT22;333;48.800;9.530;2023-04-01T02:18:28;9.20;99.60
2260;DHT22;333;48.800;9.530;2023-04-01T02:20:57;9.10;99.60
2260;DHT22;333;48.800;9.530;2023-04-01T02:23:28;9.10;99.60
2260;DHT22;333;48.800;9.530;2023-04-01T02:25:55;9.00;99.60
2260;DHT22;333;48.800;9.530;2023-04-01T02:28:23;9.10;99.60
2260;DHT22;333;48.800;9.530;2023-04-01T02:30:51;9.10;99.60
2260;DHT22;333;48.800;9.530;2023-04-01T02:33:19;9.00;99.60
2260;DHT22;333;48.800;9.530;2023-04-01T02:35:47;9.00;99.60
2260;DHT22;333;48.800;9.530;2023-04-01T02:38:14;9.00;99.60
2260;DHT22;333;48.800;9.530;2023-04-01T02:40:48;9.00;99.60
2260;DHT22;333;48.800;9.530;2023-04-01T02:43:16;9.00;99.60
2260;DHT22;333;48.800;9.530;2023-04-01T02:45:43;9.00;99.60
2260;DHT22;333;48.800;9.530;2023-04-01T02:48:10;9.10;99.60
2260;DHT22;333;48.800;9.530;2023-04-01T02:50:38;9.00;99.60
2260;DHT22;333;48.800;9.530;2023-04-01T02:53:05;9.00;99.60
2260;DHT22;333;48.800;9.530;2023-04-01T02:55:32;9.00;99.60
2260;DHT22;333;48.800;9.530;2023-04-01T02:58:01;9.00;99.60
2260;DHT22;333;48.800;9.530;2023-04-01T03:00:28;9.00;99.60
2260;DHT22;333;48.800;9.530;2023-04-01T03:02:56;8.90;99.60
2260;DHT22;333;48.800;9.530;2023-04-01T03:05:23;8.90;99.60
2260;DHT22;333;48.800;9.530;2023-04-01T03:07:50;9.00;99.60
2260;DHT22;333;48.800;9.530;2023-04-01T03:10:18;9.00;99.60
2260;DHT22;333;48.800;9.530;2023-04-01T03:12:45;9.00;99.60
2260;DHT22;333;48.800;9.530;2023-04-01T03:15:13;9.00;99.60
2260;DHT22;333;48.800;9.530;2023-04-01T03:17:41;8.90;99.60
2260;DHT22;333;48.800;9.530;2023-04-01T03:20:10;9.00;99.60
2260;DHT22;333;48.800;9.530;2023-04-01T03:22:37;8.90;99.60
2260;DHT22;333;48.800;9.530;2023-04-01T03:25:05;9.00;99.60
2260;DHT22;333;48.800;9.530;2023-04-01T03:27:33;8.90;99.60
2260;DHT22;333;48.800;9.530;2023-04-01T03:30:01;9.00;99.60
2260;DHT22;333;48.800;9.530;2023-04-01T03:32:29;9.00;99.60
2260;DHT22;333;48.800;9.530;2023-04-01T03:34:56;9.00;99.60
2260;DHT22;333;48.800;9.530;2023-04-01T03:37:23;9.00;99.60
2260;DHT22;333;48.800;9.530;2023-04-01T03:39:51;8.90;99.60
2260;DHT22;333;48.800;9.530;2023-04-01T03:42:18;8.90;99.60
2260;DHT22;333;48.800;9.530;2023-04-01T03:44:45;8.80;99.60
2260;DHT22;333;48.800;9.530;2023-04-01T03:47:12;8.80;99.60
2260;DHT22;333;48.800;9.530;2023-04-01T03:49:40;8.80;99.60
2260;DHT22;333;48.800;9.530;2023-04-01T03:52:09;8.80;99.60
2260;DHT22;333;48.800;9.530;2023-04-01T03:54:37;8.80;99.60
2260;DHT22;333;48.800;9.530;2023-04-01T03:57:04;8.80;99.60
2260;DHT22;333;48.800;9.530;2023-04-01T03:59:31;8.80;99.60
2260;DHT22;333;48.800;9.530;2023-04-01T04:01:58;8.80;99.60
2260;DHT22;333;48.800;9.530;2023-04-01T04:04:26;8.80;99.60
2260;DHT22;333;48.800;9.530;2023-04-01T04:06:54;8.80;99.60
2260;DHT22;333;48.800;9.530;2023-04-01T04:09:22;8.90;99.60
2260;DHT22;333;48.800;9.530;2023-04-01T04:11:49;8.80;99.60
2260;DHT22;333;48.800;9.530;2023-04-01T04:14:16;8.80;99.60
2260;DHT22;333;48.800;9.530;2023-04-01T04:16:43;8.70;99.60
2260;DHT22;333;48.800;9.530;2023-04-01T04:19:10;8.70;99.60
2260;DHT22;333;48.800;9.530;2023-04-01T04:21:37;8.70;99.60
2260;DHT22;333;48.800;9.530;2023-04-01T04:24:07;8.70;99.60
2260;DHT22;333;48.800;9.530;2023-04-01T04:26:34;8.70;99.60
2260;DHT22;333;48.800;9.530;2023-04-01T04:29:02;8.60;99.60
2260;DHT22;333;48.800;9.530;2023-04-01T04:31:29;8.60;99.60
2260;DHT22;333;48.800;9.530;2023-04-01T04:33:56;8.60;99.60
2260;DHT22;333;48.800;9.530;2023-04-01T04:36:25;8.60;99.60
2260;DHT22;333;48.800;9.530;2023-04-01T04:38:52;8.60;99.60
2260;DHT22;333;48.800;9.530;2023-04-01T04:41:20;8.60;99.60
2260;DHT22;333;48.800;9.530;2023-04-01T04:43:49;8.60;99.60
2260;DHT22;333;48.800;9.530;2023-04-01T04:46:17;8.50;99.60
2260;DHT22;333;48.800;9.530;2023-04-01T04:48:44;8.50;99.60
2260;DHT22;333;48.800;9.530;2023-04-01T04:51:13;8.50;99.60
2260;DHT22;333;48.800;9.530;2023-04-01T04:53:41;8.50;99.60
2260;DHT22;333;48.800;9.530;2023-04-01T04:56:08;8.50;99.60
2260;DHT22;333;48.800;9.530;2023-04-01T04:58:36;8.50;99.60
2260;DHT22;333;48.800;9.530;2023-04-01T05:01:08;8.50;99.60
2260;DHT22;333;48.800;9.530;2023-04-01T05:03:36;8.60;99.60
2260;DHT22;333;48.800;9.530;2023-04-01T05:06:04;8.60;99.60
2260;DHT22;333;48.800;9.530;2023-04-01T05:08:31;8.50;99.60
2260;DHT22;333;48.800;9.530;2023-04-01T05:10:58;8.60;99.60
2260;DHT22;333;48.800;9.530;2023-04-01T05:13:25;8.70;99.60
2260;DHT22;333;48.800;9.530;2023-04-01T05:15:54;8.70;99.60
2260;DHT22;333;48.800;9.530;2023-04-01T05:18:21;8.70;99.60
2260;DHT22;333;48.800;9.530;2023-04-01T05:20:49;8.70;99.60
2260;DHT22;333;48.800;9.530;2023-04-01T05:23:17;8.70;99.60
2260;DHT22;333;48.800;9.530;2023-04-01T05:25:46;8.70;99.60
2260;DHT22;333;48.800;9.530;2023-04-01T05:28:13;8.70;99.60
2260;DHT22;333;48.800;9.530;2023-04-01T05:30:40;8.70;99.60
2260;DHT22;333;48.800;9.530;2023-04-01T05:33:10;8.80;99.60
2260;DHT22;333;48.800;9.530;2023-04-01T05:35:37;8.80;99.60
2260;DHT22;333;48.800;9.530;2023-04-01T05:38:04;8.80;99.60
2260;DHT22;333;48.800;9.530;2023-04-01T05:40:32;8.80;99.60
2260;DHT22;333;48.800;9.530;2023-04-01T05:42:59;8.80;99.60
2260;DHT22;333;48.800;9.530;2023-04-01T05:45:26;8.80;99.60
2260;DHT22;333;48.800;9.530;2023-04-01T05:47:53;8.80;99.60
2260;DHT22;333;48.800;9.530;2023-04-01T05:50:22;8.90;99.60
2260;DHT22;333;48.800;9.530;2023-04-01T05:52:49;8.90;99.60
2260;DHT22;333;48.800;9.530;2023-04-01T05:55:16;8.90;99.60
2260;DHT22;333;48.800;9.530;2023-04-01T05:57:44;8.90;99.60
2260;DHT22;333;48.800;9.530;2023-04-01T06:00:13;8.90;99.60
2260;DHT22;333;48.800;9.530;2023-04-01T06:02:40;9.00;99.60
2260;DHT22;333;48.800;9.530;2023-04-01T06:05:14;9.00;99.60
2260;DHT22;333;48.800;9.530;2023-04-01T06:07:44;9.10;99.60
2260;DHT22;333;48.800;9.530;2023-04-01T06:10:15;9.10;99.60
2260;DHT22;333;48.800;9.530;2023-04-01T06:12:51;9.20;99.60
2260;DHT22;333;48.800;9.530;2023-04-01T06:15:32;9.20;99.60
2260;DHT22;333;48.800;9.530;2023-04-01T06:18:34;9.30;99.60
2260;DHT22;333;48.800;9.530;2023-04-01T06:21:12;9.30;99.60
2260;DHT22;333;48.800;9.530;2023-04-01T06:23:53;9.30;99.60
2260;DHT22;333;48.800;9.530;2023-04-01T06:26:30;9.40;99.60
2260;DHT22;333;48.800;9.530;2023-04-01T06:32:11;9.40;99.60
2260;DHT22;333;48.800;9.530;2023-04-01T06:37:56;9.60;99.60
2260;DHT22;333;48.800;9.530;2023-04-01T06:40:59;9.60;99.60
2260;DHT22;333;48.800;9.530;2023-04-01T06:43:33;9.70;99.60
2260;DHT22;333;48.800;9.530;2023-04-01T06:46:09;9.80;99.60
2260;DHT22;333;48.800;9.530;2023-04-01T06:48:47;9.90;99.60
2260;DHT22;333;48.800;9.530;2023-04-01T06:51:24;10.00;99.60
2260;DHT22;333;48.800;9.530;2023-04-01T06:53:56;10.00;99.60
2260;DHT22;333;48.800;9.530;2023-04-01T06:56:29;10.10;99.60
2260;DHT22;333;48.800;9.530;2023-04-01T06:58:58;10.10;99.60
2260;DHT22;333;48.800;9.530;2023-04-01T07:01:31;10.20;99.60
2260;DHT22;333;48.800;9.530;2023-04-01T07:04:04;10.10;99.60
2260;DHT22;333;48.800;9.530;2023-04-01T07:06:36;10.10;99.60
2260;DHT22;333;48.800;9.530;2023-04-01T07:09:08;10.10;99.60
2260;DHT22;333;48.800;9.530;2023-04-01T07:11:39;10.10;99.60
2260;DHT22;333;48.800;9.530;2023-04-01T07:14:13;10.00;99.60
2260;DHT22;333;48.800;9.530;2023-04-01T07:16:46;10.00;99.60
2260;DHT22;333;48.800;9.530;2023-04-01T07:19:20;10.10;99.60
2260;DHT22;333;48.800;9.530;2023-04-01T07:21:54;10.00;99.60
2260;DHT22;333;48.800;9.530;2023-04-01T07:24:26;10.00;99.60
2260;DHT22;333;48.800;9.530;2023-04-01T07:26:56;10.00;99.60
2260;DHT22;333;48.800;9.530;2023-04-01T07:29:23;10.00;99.60
2260;DHT22;333;48.800;9.530;2023-04-01T07:32:11;10.10;99.60
2260;DHT22;333;48.800;9.530;2023-04-01T07:34:55;10.10;99.60
2260;DHT22;333;48.800;9.530;2023-04-01T07:37:31;10.10;99.60
2260;DHT22;333;48.800;9.530;2023-04-01T07:40:10;10.20;99.60
2260;DHT22;333;48.800;9.530;2023-04-01T07:42:49;10.30;99.60
2260;DHT22;333;48.800;9.530;2023-04-01T07:45:24;10.40;99.60
2260;DHT22;333;48.800;9.530;2023-04-01T07:48:08;10.40;99.60
2260;DHT22;333;48.800;9.530;2023-04-01T07:50:41;10.50;99.60
2260;DHT22;333;48.800;9.530;2023-04-01T07:53:16;10.50;99.60
2260;DHT22;333;48.800;9.530;2023-04-01T07:55:53;10.50;99.60
2260;DHT22;333;48.800;9.530;2023-04-01T07:58:31;10.50;99.60
2260;DHT22;333;48.800;9.530;2023-04-01T08:01:04;10.50;99.60
2260;DHT22;333;48.800;9.530;2023-04-01T08:03:43;10.50;99.60
2260;DHT22;333;48.800;9.530;2023-04-01T08:06:22;10.50;99.60
2260;DHT22;333;48.800;9.530;2023-04-01T08:08:59;10.50;99.60
2260;DHT22;333;48.800;9.530;2023-04-01T08:11:40;10.50;99.60
2260;DHT22;333;48.800;9.530;2023-04-01T08:14:16;10.60;99.60
2260;DHT22;333;48.800;9.530;2023-04-01T08:16:52;10.60;99.60
2260;DHT22;333;48.800;9.530;2023-04-01T08:19:28;10.60;99.60
2260;DHT22;333;48.800;9.530;2023-04-01T08:22:00;10.60;99.60
2260;DHT22;333;48.800;9.530;2023-04-01T08:24:35;10.60;99.60
2260;DHT22;333;48.800;9.530;2023-04-01T08:27:09;10.60;99.60
2260;DHT22;333;48.800;9.530;2023-04-01T08:29:43;10.60;99.60
2260;DHT22;333;48.800;9.530;2023-04-01T08:32:16;10.60;99.60
2260;DHT22;333;48.800;9.530;2023-04-01T08:34:47;10.70;99.60
2260;DHT22;333;48.800;9.530;2023-04-01T08:37:20;10.70;99.60
2260;DHT22;333;48.800;9.530;2023-04-01T08:39:51;10.70;99.60
2260;DHT22;333;48.800;9.530;2023-04-01T08:42:54;10.70;99.60
2260;DHT22;333;48.800;9.530;2023-04-01T08:45:42;10.70;99.60
2260;DHT22;333;48.800;9.530;2023-04-01T08:48:42;10.70;99.60
2260;DHT22;333;48.800;9.530;2023-04-01T08:54:29;10.60;99.60
2260;DHT22;333;48.800;9.530;2023-04-01T08:57:04;10.70;99.60
2260;DHT22;333;48.800;9.530;2023-04-01T08:59:47;10.70;99.60
2260;DHT22;333;48.800;9.530;2023-04-01T09:02:31;10.70;99.60
2260;DHT22;333;48.800;9.530;2023-04-01T09:05:44;10.70;99.60
2260;DHT22;333;48.800;9.530;2023-04-01T09:08:25;10.80;99.60
2260;DHT22;333;48.800;9.530;2023-04-01T09:11:06;10.40;99.60
2260;DHT22;333;48.800;9.530;2023-04-01T09:13:48;10.20;99.60
2260;DHT22;333;48.800;9.530;2023-04-01T09:16:28;10.10;99.60
2260;DHT22;333;48.800;9.530;2023-04-01T09:19:21;9.90;99.60
2260;DHT22;333;48.800;9.530;2023-04-01T09:22:22;9.70;99.60
2260;DHT22;333;48.800;9.530;2023-04-01T09:25:21;9.60;99.60
2260;DHT22;333;48.800;9.530;2023-04-01T09:27:56;9.50;99.60
2260;DHT22;333;48.800;9.530;2023-04-01T09:31:04;9.50;99.60
2260;DHT22;333;48.800;9.530;2023-04-01T09:34:21;9.50;99.60
2260;DHT22;333;48.800;9.530;2023-04-01T09:37:00;9.50;99.60
2260;DHT22;333;48.800;9.530;2023-04-01T09:39:36;9.50;99.60
2260;DHT22;333;48.800;9.530;2023-04-01T09:42:15;9.50;99.60
2260;DHT22;333;48.800;9.530;2023-04-01T09:44:57;9.50;99.60
2260;DHT22;333;48.800;9.530;2023-04-01T09:47:41;9.60;99.60
2260;DHT22;333;48.800;9.530;2023-04-01T09:50:35;9.70;99.60
2260;DHT22;333;48.800;9.530;2023-04-01T09:53:24;9.70;99.60
2260;DHT22;333;48.800;9.530;2023-04-01T09:56:23;9.80;99.60
2260;DHT22;333;48.800;9.530;2023-04-01T10:02:40;10.00;99.60
2260;DHT22;333;48.800;9.530;2023-04-01T10:05:43;10.00;99.60
2260;DHT22;333;48.800;9.530;2023-04-01T10:08:39;10.00;99.60
2260;DHT22;333;48.800;9.530;2023-04-01T10:14:51;10.20;99.60
2260;DHT22;333;48.800;9.530;2023-04-01T10:17:57;10.00;99.60
2260;DHT22;333;48.800;9.530;2023-04-01T10:20:39;9.80;99.60
2260;DHT22;333;48.800;9.530;2023-04-01T10:23:22;9.80;99.60
2260;DHT22;333;48.800;9.530;2023-04-01T10:35:24;9.80;99.60
2260;DHT22;333;48.800;9.530;2023-04-01T10:41:27;9.90;99.60
2260;DHT22;333;48.800;9.530;2023-04-01T10:44:45;9.90;99.60
2260;DHT22;333;48.800;9.530;2023-04-01T10:48:05;9.90;99.60
2260;DHT22;333;48.800;9.530;2023-04-01T10:51:00;10.00;99.60
2260;DHT22;333;48.800;9.530;2023-04-01T10:53:37;10.00;99.60
2260;DHT22;333;48.800;9.530;2023-04-01T10:56:40;10.00;99.60
2260;DHT22;333;48.800;9.530;2023-04-01T11:12:29;9.60;99.60
2260;DHT22;333;48.800;9.530;2023-04-01T11:15:31;9.60;99.60
2260;DHT22;333;48.800;9.530;2023-04-01T11:18:31;9.50;99.60
2260;DHT22;333;48.800;9.530;2023-04-01T11:27:25;9.40;99.60
2260;DHT22;333;48.800;9.530;2023-04-01T11:30:17;9.50;99.60
2260;DHT22;333;48.800;9.530;2023-04-01T11:33:00;9.50;99.60
2260;DHT22;333;48.800;9.530;2023-04-01T11:35:53;9.50;99.60
2260;DHT22;333;48.800;9.530;2023-04-01T11:38:47;9.50;99.60
2260;DHT22;333;48.800;9.530;2023-04-01T11:41:24;9.60;99.60
2260;DHT22;333;48.800;9.530;2023-04-01T11:44:09;9.60;99.60
2260;DHT22;333;48.800;9.530;2023-04-01T11:46:46;9.70;99.60
2260;DHT22;333;48.800;9.530;2023-04-01T11:49:36;9.70;99.60
2260;DHT22;333;48.800;9.530;2023-04-01T11:52:32;9.80;99.60
2260;DHT22;333;48.800;9.530;2023-04-01T11:55:19;9.80;99.60
2260;DHT22;333;48.800;9.530;2023-04-01T11:58:13;9.90;99.60
2260;DHT22;333;48.800;9.530;2023-04-01T12:01:08;9.90;99.60
2260;DHT22;333;48.800;9.530;2023-04-01T12:07:10;10.00;99.60
2260;DHT22;333;48.800;9.530;2023-04-01T12:09:48;10.20;99.60
2260;DHT22;333;48.800;9.530;2023-04-01T12:12:25;10.30;99.60
2260;DHT22;333;48.800;9.530;2023-04-01T12:15:03;10.40;99.60
2260;DHT22;333;48.800;9.530;2023-04-01T12:17:44;10.40;99.60
2260;DHT22;333;48.800;9.530;2023-04-01T12:20:26;10.40;99.60
2260;DHT22;333;48.800;9.530;2023-04-01T12:23:02;10.40;99.60
2260;DHT22;333;48.800;9.530;2023-04-01T12:25:46;10.50;99.60
2260;DHT22;333;48.800;9.530;2023-04-01T12:28:24;10.50;99.60
2260;DHT22;333;48.800;9.530;2023-04-01T12:31:06;10.50;99.60
2260;DHT22;333;48.800;9.530;2023-04-01T12:34:00;10.40;99.60
2260;DHT22;333;48.800;9.530;2023-04-01T12:36:40;10.40;99.60
2260;DHT22;333;48.800;9.530;2023-04-01T12:39:32;10.30;99.60
2260;DHT22;333;48.800;9.530;2023-04-01T12:42:05;10.40;99.60
2260;DHT22;333;48.800;9.530;2023-04-01T12:44:52;10.40;99.60
2260;DHT22;333;48.800;9.530;2023-04-01T12:47:53;10.40;99.60
2260;DHT22;333;48.800;9.530;2023-04-01T12:50:42;10.40;99.60
2260;DHT22;333;48.800;9.530;2023-04-01T12:53:35;10.40;99.60
2260;DHT22;333;48.800;9.530;2023-04-01T12:56:11;10.40;99.60
2260;DHT22;333;48.800;9.530;2023-04-01T12:59:01;10.40;99.60
2260;DHT22;333;48.800;9.530;2023-04-01T13:01:56;10.30;99.60
2260;DHT22;333;48.800;9.530;2023-04-01T13:04:51;10.30;99.60
2260;DHT22;333;48.800;9.530;2023-04-01T13:07:43;10.20;99.60
2260;DHT22;333;48.800;9.530;2023-04-01T13:10:25;10.30;99.60
2260;DHT22;333;48.800;9.530;2023-04-01T13:15:52;10.30;99.60
2260;DHT22;333;48.800;9.530;2023-04-01T13:18:29;10.40;99.60
2260;DHT22;333;48.800;9.530;2023-04-01T13:21:05;10.40;99.60
2260;DHT22;333;48.800;9.530;2023-04-01T13:23:49;10.50;99.60
2260;DHT22;333;48.800;9.530;2023-04-01T13:26:24;10.50;99.60
2260;DHT22;333;48.800;9.530;2023-04-01T13:29:00;10.60;99.60
2260;DHT22;333;48.800;9.530;2023-04-01T13:31:47;10.70;99.60
2260;DHT22;333;48.800;9.530;2023-04-01T13:34:26;10.70;99.60
2260;DHT22;333;48.800;9.530;2023-04-01T13:37:04;10.80;99.60
2260;DHT22;333;48.800;9.530;2023-04-01T13:39:53;10.80;99.60
2260;DHT22;333;48.800;9.530;2023-04-01T13:42:26;10.90;99.60
2260;DHT22;333;48.800;9.530;2023-04-01T13:45:00;10.90;99.60
2260;DHT22;333;48.800;9.530;2023-04-01T13:56:34;11.00;99.60
2260;DHT22;333;48.800;9.530;2023-04-01T13:59:37;11.00;99.60
2260;DHT22;333;48.800;9.530;2023-04-01T14:02:30;11.10;99.60
2260;DHT22;333;48.800;9.530;2023-04-01T14:05:23;11.20;99.60
2260;DHT22;333;48.800;9.530;2023-04-01T14:08:00;11.20;99.60
2260;DHT22;333;48.800;9.530;2023-04-01T14:10:34;11.30;99.60
2260;DHT22;333;48.800;9.530;2023-04-01T14:13:09;11.20;99.60
2260;DHT22;333;48.800;9.530;2023-04-01T14:15:48;11.20;99.60
2260;DHT22;333;48.800;9.530;2023-04-01T14:18:33;11.30;99.60
2260;DHT22;333;48.800;9.530;2023-04-01T14:21:21;11.20;99.60
2260;DHT22;333;48.800;9.530;2023-04-01T14:24:03;11.10;99.60
2260;DHT22;333;48.800;9.530;2023-04-01T14:30:25;11.10;99.60
2260;DHT22;333;48.800;9.530;2023-04-01T14:32:58;11.10;99.60
2260;DHT22;333;48.800;9.530;2023-04-01T14:35:37;11.10;99.60
2260;DHT22;333;48.800;9.530;2023-04-01T14:38:32;11.00;99.60
2260;DHT22;333;48.800;9.530;2023-04-01T14:41:11;10.80;99.60
2260;DHT22;333;48.800;9.530;2023-04-01T14:49:46;10.60;99.60
2260;DHT22;333;48.800;9.530;2023-04-01T14:52:21;10.60;99.60
2260;DHT22;333;48.800;9.530;2023-04-01T14:54:50;10.60;99.60
2260;DHT22;333;48.800;9.530;2023-04-01T14:57:24;10.50;99.60
2260;DHT22;333;48.800;9.530;2023-04-01T14:59:54;10.50;99.60
2260;DHT22;333;48.800;9.530;2023-04-01T15:02:43;10.40;99.60
2260;DHT22;333;48.800;9.530;2023-04-01T15:05:20;10.30;99.60
2260;DHT22;333;48.800;9.530;2023-04-01T15:08:01;10.20;99.60
2260;DHT22;333;48.800;9.530;2023-04-01T15:10:49;10.20;99.60
2260;DHT22;333;48.800;9.530;2023-04-01T15:13:26;10.10;99.60
2260;DHT22;333;48.800;9.530;2023-04-01T15:16:04;10.00;99.60
2260;DHT22;333;48.800;9.530;2023-04-01T15:18:44;10.00;99.60
2260;DHT22;333;48.800;9.530;2023-04-01T15:21:29;10.00;99.60
2260;DHT22;333;48.800;9.530;2023-04-01T15:24:06;10.00;99.60
2260;DHT22;333;48.800;9.530;2023-04-01T15:26:55;9.90;99.60
2260;DHT22;333;48.800;9.530;2023-04-01T15:29:43;10.00;99.60
2260;DHT22;333;48.800;9.530;2023-04-01T15:32:19;10.00;99.60
2260;DHT22;333;48.800;9.530;2023-04-01T15:34:57;10.00;99.60
2260;DHT22;333;48.800;9.530;2023-04-01T15:37:34;10.00;99.60
2260;DHT22;333;48.800;9.530;2023-04-01T15:40:17;9.90;99.60
2260;DHT22;333;48.800;9.530;2023-04-01T15:42:59;10.00;99.60
2260;DHT22;333;48.800;9.530;2023-04-01T15:45:49;10.00;99.60
2260;DHT22;333;48.800;9.530;2023-04-01T15:48:26;10.10;99.60
2260;DHT22;333;48.800;9.530;2023-04-01T15:51:16;10.10;99.60
2260;DHT22;333;48.800;9.530;2023-04-01T15:53:56;10.10;99.60
2260;DHT22;333;48.800;9.530;2023-04-01T15:56:41;10.20;99.60
2260;DHT22;333;48.800;9.530;2023-04-01T15:59:22;10.20;99.60
2260;DHT22;333;48.800;9.530;2023-04-01T16:01:58;10.30;99.60
2260;DHT22;333;48.800;9.530;2023-04-01T16:04:37;10.40;99.60
2260;DHT22;333;48.800;9.530;2023-04-01T16:07:22;10.40;99.60
2260;DHT22;333;48.800;9.530;2023-04-01T16:10:16;10.40;99.60
2260;DHT22;333;48.800;9.530;2023-04-01T16:12:58;10.50;99.60
2260;DHT22;333;48.800;9.530;2023-04-01T16:15:37;10.50;99.60
2260;DHT22;333;48.800;9.530;2023-04-01T16:18:27;10.60;99.60
2260;DHT22;333;48.800;9.530;2023-04-01T16:21:00;10.60;99.60
2260;DHT22;333;48.800;9.530;2023-04-01T16:23:36;10.60;99.60
2260;DHT22;333;48.800;9.530;2023-04-01T16:26:07;10.70;99.60
2260;DHT22;333;48.800;9.530;2023-04-01T16:28:40;10.70;99.60
2260;DHT22;333;48.800;9.530;2023-04-01T16:31:13;10.80;99.60
2260;DHT22;333;48.800;9.530;2023-04-01T16:33:47;10.80;99.60
2260;DHT22;333;48.800;9.530;2023-04-01T16:36:24;10.80;99.60
2260;DHT22;333;48.800;9.530;2023-04-01T16:39:07;10.80;99.60
2260;DHT22;333;48.800;9.530;2023-04-01T16:41:38;10.90;99.60
2260;DHT22;333;48.800;9.530;2023-04-01T16:44:17;10.90;99.60
2260;DHT22;333;48.800;9.530;2023-04-01T16:46:46;10.90;99.60
2260;DHT22;333;48.800;9.530;2023-04-01T16:49:33;10.90;99.60
2260;DHT22;333;48.800;9.530;2023-04-01T16:52:17;10.90;99.60
2260;DHT22;333;48.800;9.530;2023-04-01T16:55:01;10.90;99.60
2260;DHT22;333;48.800;9.530;2023-04-01T16:57:36;10.90;99.60
2260;DHT22;333;48.800;9.530;2023-04-01T17:00:16;10.90;99.60
2260;DHT22;333;48.800;9.530;2023-04-01T17:02:49;10.90;99.60
2260;DHT22;333;48.800;9.530;2023-04-01T17:05:19;10.80;99.60
2260;DHT22;333;48.800;9.530;2023-04-01T17:07:53;10.80;99.60
2260;DHT22;333;48.800;9.530;2023-04-01T17:10:41;10.70;99.60
2260;DHT22;333;48.800;9.530;2023-04-01T17:13:40;10.60;99.60
2260;DHT22;333;48.800;9.530;2023-04-01T17:16:28;10.50;99.60
2260;DHT22;333;48.800;9.530;2023-04-01T17:19:05;10.40;99.60
2260;DHT22;333;48.800;9.530;2023-04-01T17:21:48;10.40;99.60
2260;DHT22;333;48.800;9.530;2023-04-01T17:24:30;10.30;99.60
2260;DHT22;333;48.800;9.530;2023-04-01T17:27:10;10.30;99.60
2260;DHT22;333;48.800;9.530;2023-04-01T17:29:57;10.20;99.60
2260;DHT22;333;48.800;9.530;2023-04-01T17:32:38;10.10;99.60
2260;DHT22;333;48.800;9.530;2023-04-01T17:35:12;10.10;99.60
2260;DHT22;333;48.800;9.530;2023-04-01T17:37:54;10.10;99.60
2260;DHT22;333;48.800;9.530;2023-04-01T17:40:38;10.10;99.60
2260;DHT22;333;48.800;9.530;2023-04-01T17:43:18;10.10;99.60
2260;DHT22;333;48.800;9.530;2023-04-01T17:45:49;10.10;99.60
2260;DHT22;333;48.800;9.530;2023-04-01T17:48:26;10.10;99.60
2260;DHT22;333;48.800;9.530;2023-04-01T17:51:17;10.10;99.60
2260;DHT22;333;48.800;9.530;2023-04-01T17:53:56;10.10;99.60
2260;DHT22;333;48.800;9.530;2023-04-01T17:56:49;10.10;99.60
2260;DHT22;333;48.800;9.530;2023-04-01T17:59:28;10.10;99.60
2260;DHT22;333;48.800;9.530;2023-04-01T18:02:06;10.20;99.60
2260;DHT22;333;48.800;9.530;2023-04-01T18:04:54;10.10;99.60
2260;DHT22;333;48.800;9.530;2023-04-01T18:07:36;10.20;99.60
2260;DHT22;333;48.800;9.530;2023-04-01T18:10:20;10.10;99.60
2260;DHT22;333;48.800;9.530;2023-04-01T18:13:14;10.20;99.60
2260;DHT22;333;48.800;9.530;2023-04-01T18:15:56;10.20;99.60
2260;DHT22;333;48.800;9.530;2023-04-01T18:18:37;10.20;99.60
2260;DHT22;333;48.800;9.530;2023-04-01T18:21:12;10.20;99.60
2260;DHT22;333;48.800;9.530;2023-04-01T18:23:46;10.20;99.60
2260;DHT22;333;48.800;9.530;2023-04-01T18:26:21;10.20;99.60
2260;DHT22;333;48.800;9.530;2023-04-01T18:28:54;10.20;99.60
2260;DHT22;333;48.800;9.530;2023-04-01T18:31:25;10.20;99.60
2260;DHT22;333;48.800;9.530;2023-04-01T18:33:59;10.20;99.60
2260;DHT22;333;48.800;9.530;2023-04-01T18:36:38;10.10;99.60
2260;DHT22;333;48.800;9.530;2023-04-01T18:39:11;9.90;99.60
2260;DHT22;333;48.800;9.530;2023-04-01T18:41:54;9.70;99.60
2260;DHT22;333;48.800;9.530;2023-04-01T18:44:30;9.50;99.60
2260;DHT22;333;48.800;9.530;2023-04-01T18:47:14;9.50;99.60
2260;DHT22;333;48.800;9.530;2023-04-01T18:49:46;9.40;99.60